Time;durP1;ratioP1;P1;durP2;ratioP2;P2;SDS_P1;SDS_P2;PMS_P1;PMS_P2;Temp;Humidity;BMP_temperature;BMP_pressure;BME280_temperature;BME280_humidity;BME280_pressure;Samples;Min_cycle;Max_cycle;Signal;HPM_P1;HPM_P2
2022/09/04 00:02:16;;;;;;;12.00;7.10;;;;;;;19.78;86.02;100510.94;5047337;28;20207;-64
2022/09/04 00:04:53;;;;;;;13.70;8.93;;;;;;;19.73;87.19;100510.69;5045302;28;20291;-64
2022/09/04 00:07:27;;;;;;;18.60;9.87;;;;;;;19.86;86.09;100512.56;5043272;28;20280;-65
2022/09/04 00:10:10;;;;;;;16.63;10.13;;;;;;;19.91;85.59;100523.53;5045611;28;20776;-65
2022/09/04 00:12:44;;;;;;;14.43;9.00;;;;;;;19.84;86.93;100526.25;5042626;28;20286;-65
2022/09/04 00:15:18;;;;;;;17.53;9.50;;;;;;;19.88;86.15;100527.47;5042021;28;20227;-64
2022/09/04 00:17:52;;;;;;;25.80;12.77;;;;;;;19.91;86.80;100529.75;5045075;28;20232;-65
2022/09/04 00:20:30;;;;;;;25.37;13.73;;;;;;;19.89;87.52;100536.38;5043851;28;20290;-64
2022/09/04 00:23:05;;;;;;;27.60;14.93;;;;;;;19.86;87.68;100532.25;5045363;28;20676;-65
2022/09/04 00:25:41;;;;;;;32.23;15.50;;;;;;;19.94;87.19;100536.59;5042359;28;20208;-64
2022/09/04 00:28:15;;;;;;;35.53;16.27;;;;;;;19.97;87.25;100535.31;5042162;28;20207;-65
2022/09/04 00:30:49;;;;;;;31.23;15.57;;;;;;;19.96;87.98;100536.38;5044264;28;20237;-64
2022/09/04 00:33:25;;;;;;;28.70;16.40;;;;;;;19.96;87.98;100531.00;5042279;28;20575;-65
2022/09/04 00:35:58;;;;;;;31.57;16.57;;;;;;;19.87;90.17;100536.59;5042809;28;20528;-64
2022/09/04 00:38:43;;;;;;;32.43;15.50;;;;;;;19.79;91.30;100536.78;5044043;28;20207;-65
2022/09/04 00:41:21;;;;;;;31.37;16.87;;;;;;;19.78;91.66;100537.84;5054770;28;20245;-65
2022/09/04 00:44:09;;;;;;;34.70;17.53;;;;;;;19.91;90.86;100537.81;5062935;28;20203;-64
2022/09/04 00:46:52;;;;;;;32.47;16.97;;;;;;;19.91;91.78;100537.81;5062930;28;21461;-64
2022/09/04 00:49:45;;;;;;;32.53;17.03;;;;;;;19.70;94.81;100540.69;5064576;28;20239;-64
2022/09/04 00:52:29;;;;;;;33.80;17.67;;;;;;;19.58;96.60;100544.22;5037476;28;20229;-64
2022/09/04 00:55:26;;;;;;;32.60;17.53;;;;;;;19.46;98.06;100543.94;5064044;28;20214;-63
2022/09/04 00:58:13;;;;;;;27.80;16.80;;;;;;;19.47;97.79;100541.09;5062550;28;20204;-64
2022/09/04 01:00:45;;;;;;;29.97;18.20;;;;;;;19.56;97.15;100544.41;5063531;28;20206;-65
2022/09/04 01:03:32;;;;;;;31.67;17.07;;;;;;;19.67;95.73;100546.50;5063451;28;20665;-65
2022/09/04 01:06:31;;;;;;;26.30;15.60;;;;;;;19.80;94.07;100551.06;5063496;28;20203;-66
2022/09/04 01:09:23;;;;;;;27.10;16.40;;;;;;;19.82;94.26;100554.38;5064203;28;20215;-66
2022/09/04 01:12:05;;;;;;;26.07;16.07;;;;;;;19.90;92.95;100555.00;5063779;28;20245;-64
2022/09/04 01:14:40;;;;;;;30.33;17.33;;;;;;;19.88;92.70;100561.63;5064148;28;20203;-64
2022/09/04 01:17:14;;;;;;;28.53;17.43;;;;;;;19.88;93.26;100570.50;5063017;28;20230;-64
2022/09/04 01:19:55;;;;;;;28.23;16.57;;;;;;;19.90;92.89;100568.47;5064053;28;20835;-64
2022/09/04 01:22:46;;;;;;;24.63;15.80;;;;;;;19.96;92.07;100568.69;5064196;28;20207;-64
2022/09/04 01:25:34;;;;;;;24.73;15.80;;;;;;;19.91;92.63;100570.13;5063243;28;20195;-64
2022/09/04 01:28:07;;;;;;;27.50;15.37;;;;;;;19.87;93.10;100574.28;5059781;28;20204;-64
2022/09/04 01:30:45;;;;;;;21.90;15.27;;;;;;;19.94;92.12;100579.66;5061743;28;20230;-64
2022/09/04 01:33:22;;;;;;;36.77;15.77;;;;;;;19.97;91.33;100578.38;5065065;28;20311;-64
2022/09/04 01:35:56;;;;;;;22.17;14.27;;;;;;;19.91;91.88;100577.34;5063539;28;20647;-64
2022/09/04 01:38:33;;;;;;;24.93;15.60;;;;;;;19.91;91.25;100577.34;5061809;28;20199;-64
2022/09/04 01:41:10;;;;;;;18.03;13.73;;;;;;;19.87;91.73;100576.13;5061831;28;20687;-64
2022/09/04 01:43:40;;;;;;;19.80;13.27;;;;;;;19.86;91.17;100583.38;5061954;28;20797;-65
2022/09/04 01:46:28;;;;;;;21.17;13.53;;;;;;;19.88;90.59;100585.84;5062944;28;20207;-66
2022/09/04 01:49:04;;;;;;;15.57;11.93;;;;;;;19.87;90.66;100590.41;5064125;28;20200;-65
2022/09/04 01:51:40;;;;;;;15.80;11.00;;;;;;;19.82;90.79;100583.97;5064818;28;20231;-65
2022/09/04 01:54:19;;;;;;;14.20;11.53;;;;;;;19.81;90.93;100580.44;5063256;28;20203;-64
2022/09/04 01:57:04;;;;;;;14.30;11.53;;;;;;;19.80;90.22;100584.16;5061186;28;20340;-64
2022/09/04 01:59:44;;;;;;;13.40;11.20;;;;;;;19.76;91.26;100588.31;5061477;28;20203;-64
2022/09/04 02:02:20;;;;;;;20.60;11.43;;;;;;;19.78;90.64;100591.66;5064750;28;20337;-64
2022/09/04 02:04:55;;;;;;;13.70;10.87;;;;;;;19.83;89.88;100586.47;5064148;28;20659;-65
2022/09/04 02:07:32;;;;;;;15.63;11.77;;;;;;;19.74;91.08;100585.00;5061653;28;20266;-66
2022/09/04 02:10:08;;;;;;;14.43;10.50;;;;;;;19.67;91.93;100588.72;5062064;28;20225;-65
2022/09/04 02:12:49;;;;;;;14.53;11.43;;;;;;;19.63;92.51;100588.28;5062272;28;20203;-65
2022/09/04 02:15:34;;;;;;;14.20;11.50;;;;;;;19.75;90.82;100589.34;5060072;28;20584;-65
2022/09/04 02:18:12;;;;;;;13.47;11.17;;;;;;;19.71;91.30;100596.16;5061633;28;20199;-65
2022/09/04 02:20:46;;;;;;;15.17;12.20;;;;;;;19.63;92.13;100590.16;5062246;28;20706;-65
2022/09/04 02:23:20;;;;;;;13.27;11.00;;;;;;;19.64;91.87;100592.63;5062521;28;20202;-64
2022/09/04 02:25:54;;;;;;;14.80;12.03;;;;;;;19.64;91.77;100599.88;5060574;28;20335;-66
2022/09/04 02:28:33;;;;;;;16.40;12.53;;;;;;;19.64;92.38;100597.19;5061234;28;20551;-64
2022/09/04 02:31:13;;;;;;;15.37;12.10;;;;;;;19.71;91.67;100593.47;5061764;28;20218;-64
2022/09/04 02:33:47;;;;;;;17.47;13.00;;;;;;;19.71;92.11;100595.34;5061678;28;20231;-65
2022/09/04 02:36:23;;;;;;;16.43;12.57;;;;;;;19.75;92.02;100594.72;5061001;28;20209;-65
2022/09/04 02:38:59;;;;;;;17.47;13.17;;;;;;;19.74;92.65;100601.16;5062848;28;20807;-63
2022/09/04 02:41:37;;;;;;;15.57;12.03;;;;;;;19.76;91.80;100596.41;5065646;28;20280;-65
2022/09/04 02:44:19;;;;;;;15.73;12.93;;;;;;;19.82;91.47;100597.44;5066212;28;20648;-65
2022/09/04 02:47:01;;;;;;;16.33;12.57;;;;;;;19.77;91.40;100598.06;5060973;28;20203;-65
2022/09/04 02:49:39;;;;;;;15.63;13.03;;;;;;;19.69;92.29;100598.25;5057301;28;20199;-65
2022/09/04 02:52:24;;;;;;;17.10;12.37;;;;;;;19.69;92.32;100603.63;5060690;28;20322;-65
2022/09/04 02:55:11;;;;;;;16.87;13.17;;;;;;;19.76;91.59;100609.84;5059042;28;20210;-65
2022/09/04 02:57:53;;;;;;;17.47;13.30;;;;;;;19.65;93.01;100607.75;5060025;28;20234;-65
2022/09/04 03:00:38;;;;;;;14.97;11.83;;;;;;;19.66;92.90;100613.97;5067647;28;20223;-65
2022/09/04 03:03:14;;;;;;;16.60;12.80;;;;;;;19.73;92.34;100612.09;5067955;28;20300;-65
2022/09/04 03:05:51;;;;;;;16.33;12.83;;;;;;;19.70;92.28;100607.97;5061232;28;20208;-65
2022/09/04 03:08:23;;;;;;;14.17;11.30;;;;;;;19.70;92.73;100616.03;5065174;28;20203;-65
2022/09/04 03:10:56;;;;;;;17.27;13.03;;;;;;;19.70;92.86;100616.03;5056592;28;20599;-65
2022/09/04 03:13:30;;;;;;;16.77;13.23;;;;;;;19.71;93.25;100615.00;5068322;28;20209;-65
2022/09/04 03:16:05;;;;;;;16.87;13.13;;;;;;;19.74;92.89;100617.28;5063532;28;20211;-65
2022/09/04 03:18:54;;;;;;;18.87;14.13;;;;;;;19.78;92.44;100615.88;5062185;28;20205;-65
2022/09/04 03:21:29;;;;;;;17.90;14.07;;;;;;;19.79;92.24;100622.88;5063340;28;20208;-64
2022/09/04 03:24:04;;;;;;;17.17;13.80;;;;;;;19.76;92.23;100626.00;5056803;28;20212;-65
2022/09/04 03:26:35;;;;;;;16.87;13.03;;;;;;;19.76;92.50;100630.53;5058647;28;20225;-64
2022/09/04 03:29:13;;;;;;;18.67;13.97;;;;;;;19.72;93.28;100626.59;5065967;28;20790;-64
2022/09/04 03:31:48;;;;;;;19.73;14.27;;;;;;;19.77;93.05;100627.66;5070662;28;20688;-63
2022/09/04 03:34:30;;;;;;;19.70;14.40;;;;;;;19.82;92.10;100632.41;5071321;28;20297;-64
2022/09/04 03:37:15;;;;;;;18.97;14.57;;;;;;;19.81;92.04;100628.88;5063111;28;20207;-64
2022/09/04 03:39:57;;;;;;;19.27;14.93;;;;;;;19.82;91.43;100629.72;5064338;28;20684;-64
2022/09/04 03:42:35;;;;;;;17.77;13.97;;;;;;;19.82;90.73;100625.16;5067623;28;20286;-65
2022/09/04 03:45:16;;;;;;;18.03;13.90;;;;;;;19.80;90.45;100629.91;5060956;28;20199;-64
2022/09/04 03:47:54;;;;;;;18.87;14.90;;;;;;;19.80;90.79;100635.28;5065094;28;20210;-64
2022/09/04 03:50:30;;;;;;;17.97;13.90;;;;;;;19.83;90.02;100642.13;5069681;28;20557;-64
2022/09/04 03:53:06;;;;;;;18.57;14.10;;;;;;;19.77;90.82;100641.09;5066853;28;20210;-65
2022/09/04 03:56:01;;;;;;;17.27;13.53;;;;;;;19.79;90.27;100647.09;5067024;28;20202;-65
2022/09/04 03:58:39;;;;;;;16.23;12.33;;;;;;;19.76;90.32;100634.06;5061900;28;20574;-64
2022/09/04 04:01:17;;;;;;;16.73;12.93;;;;;;;19.73;90.70;100641.69;5063302;28;20200;-66
2022/09/04 04:04:06;;;;;;;17.40;12.47;;;;;;;19.66;91.14;100651.63;5063145;28;20211;-64
2022/09/04 04:06:44;;;;;;;16.20;12.07;;;;;;;19.72;91.13;100650.81;5060252;28;20214;-65
2022/09/04 04:09:34;;;;;;;18.53;12.87;;;;;;;19.72;90.55;100648.13;5070697;28;20203;-65
2022/09/04 04:12:26;;;;;;;22.43;15.03;;;;;;;19.71;91.38;100649.97;5070066;28;20309;-65
2022/09/04 04:15:10;;;;;;;23.83;16.13;;;;;;;19.62;92.48;100651.19;5068927;28;20203;-64
2022/09/04 04:18:05;;;;;;;23.53;16.00;;;;;;;19.70;91.43;100651.00;5067565;28;20204;-65
2022/09/04 04:20:43;;;;;;;25.93;16.83;;;;;;;19.73;91.15;100657.84;5067549;28;20211;-65
2022/09/04 04:23:35;;;;;;;37.07;20.50;;;;;;;19.68;91.78;100655.78;5066258;28;20210;-64
2022/09/04 04:26:10;;;;;;;41.67;19.07;;;;;;;19.69;92.04;100654.75;5066361;28;20215;-64
2022/09/04 04:29:00;;;;;;;50.80;20.90;;;;;;;19.63;92.85;100666.28;5067541;28;20639;-64
2022/09/04 04:31:44;;;;;;;34.87;17.77;;;;;;;19.67;92.21;100666.75;5066236;28;21454;-64
2022/09/04 04:34:23;;;;;;;31.23;15.33;;;;;;;19.68;91.27;100671.09;5066441;28;20624;-65
2022/09/04 04:37:00;;;;;;;27.47;14.40;;;;;;;19.60;91.02;100676.66;5061030;28;20219;-64
2022/09/04 04:39:36;;;;;;;24.33;13.80;;;;;;;19.59;91.12;100681.19;5065426;28;20521;-64
2022/09/04 04:42:16;;;;;;;30.57;15.27;;;;;;;19.61;90.62;100681.00;5060884;28;20292;-64
2022/09/04 04:48:13;;;;;;;24.30;12.97;;;;;;;19.70;88.91;100688.66;5059375;28;20249;-65
2022/09/04 04:50:50;;;;;;;20.70;11.97;;;;;;;19.70;89.15;100695.94;5031229;28;20224;-65
2022/09/04 04:53:28;;;;;;;20.67;12.47;;;;;;;19.61;88.94;100697.97;5064642;28;20200;-65
2022/09/04 04:56:04;;;;;;;21.53;12.53;;;;;;;19.57;89.10;100707.47;5067022;28;20270;-65
2022/09/04 04:58:57;;;;;;;18.23;11.53;;;;;;;19.59;88.41;100713.47;5061134;28;20207;-65
2022/09/04 05:01:35;;;;;;;17.17;11.53;;;;;;;19.56;88.14;100711.19;5066225;28;20227;-65
2022/09/04 05:04:13;;;;;;;18.70;12.07;;;;;;;19.62;87.44;100715.75;5063617;28;20575;-66
2022/09/04 05:06:50;;;;;;;20.77;12.70;;;;;;;19.69;86.79;100713.09;5062771;28;20202;-65
2022/09/04 05:09:25;;;;;;;25.53;13.77;;;;;;;19.67;87.39;100713.31;5067055;28;20210;-65
2022/09/04 05:11:59;;;;;;;22.30;13.87;;;;;;;19.67;87.14;100717.84;5063780;28;20681;-65
2022/09/04 05:14:43;;;;;;;26.67;14.20;;;;;;;19.61;87.29;100724.03;5060473;28;20294;-65
2022/09/04 05:17:22;;;;;;;26.57;15.43;;;;;;;19.59;87.71;100729.63;5059628;28;20261;-66
2022/09/04 05:19:58;;;;;;;27.43;15.33;;;;;;;19.62;87.94;100728.38;5061889;28;20203;-65
2022/09/04 05:22:34;;;;;;;30.37;14.93;;;;;;;19.65;87.13;100728.81;5063090;28;20202;-65
2022/09/04 05:25:11;;;;;;;26.57;14.43;;;;;;;19.64;86.32;100735.22;5063656;28;20921;-64
2022/09/04 05:27:48;;;;;;;27.10;13.73;;;;;;;19.63;86.88;100740.78;5061832;28;20210;-65
2022/09/04 05:30:20;;;;;;;25.63;14.50;;;;;;;19.56;87.44;100739.94;5062593;28;20862;-66
2022/09/04 05:32:56;;;;;;;23.50;13.23;;;;;;;19.58;87.45;100746.78;5063211;28;20234;-64
2022/09/04 05:35:31;;;;;;;19.67;12.07;;;;;;;19.59;87.09;100745.75;5062363;28;20213;-64
2022/09/04 05:38:08;;;;;;;16.70;10.50;;;;;;;19.59;87.39;100751.13;5062936;28;20294;-65
2022/09/04 05:40:56;;;;;;;17.73;10.90;;;;;;;19.63;86.77;100757.75;5053939;28;20663;-65
2022/09/04 05:43:35;;;;;;;18.43;11.47;;;;;;;19.64;87.11;100756.72;5048470;28;20572;-65
2022/09/04 05:46:12;;;;;;;16.53;10.93;;;;;;;19.66;86.79;100760.06;5040918;28;20214;-65
2022/09/04 05:48:46;;;;;;;21.40;12.40;;;;;;;19.67;87.48;100766.28;5039146;28;20196;-65
2022/09/04 05:52:07;;;;;;;21.73;12.00;;;;;;;19.72;86.72;100770.00;5039860;28;20215;-64
2022/09/04 05:55:05;;;;;;;20.57;11.50;;;;;;;19.75;87.10;100766.94;4977726;28;20208;-64
2022/09/04 05:57:47;;;;;;;21.50;12.83;;;;;;;19.74;86.79;100777.88;5041377;28;20208;-64
2022/09/04 06:00:17;;;;;;;26.17;14.80;;;;;;;19.70;87.81;100777.44;5044505;28;20207;-64
2022/09/04 06:03:08;;;;;;;28.63;14.80;;;;;;;19.71;87.83;100779.09;5038117;28;20210;-64
2022/09/04 06:05:46;;;;;;;27.33;14.60;;;;;;;19.65;88.87;100771.84;5041522;28;20211;-64
2022/09/04 06:08:41;;;;;;;26.87;14.13;;;;;;;19.68;88.24;100784.91;5040578;28;20679;-64
2022/09/04 06:11:36;;;;;;;29.23;14.63;;;;;;;19.75;87.28;100788.47;5043052;28;20210;-65
2022/09/04 06:14:25;;;;;;;29.90;15.73;;;;;;;19.65;89.29;100790.69;5049168;28;20294;-65
2022/09/04 06:17:15;;;;;;;31.83;17.43;;;;;;;19.48;91.24;100800.09;5034855;28;20215;-64
2022/09/04 06:20:03;;;;;;;38.03;18.17;;;;;;;19.49;91.61;100801.78;5035412;28;20210;-64
2022/09/04 06:22:54;;;;;;;31.30;15.67;;;;;;;19.49;92.25;100801.78;5046969;28;20200;-65
2022/09/04 06:26:05;;;;;;;30.67;16.30;;;;;;;19.53;91.26;100803.03;5042674;28;20276;-65
2022/09/04 06:29:13;;;;;;;33.83;16.80;;;;;;;19.54;91.24;100804.69;5041304;28;20251;-65
2022/09/04 06:31:55;;;;;;;31.83;16.73;;;;;;;19.56;91.66;100805.31;5035014;28;20431;-64
2022/09/04 06:34:40;;;;;;;38.77;17.27;;;;;;;19.68;90.19;100809.13;5038191;28;20208;-64
2022/09/04 06:37:23;;;;;;;34.43;17.37;;;;;;;19.70;90.90;100807.03;5034073;28;20207;-64
2022/09/04 06:40:05;;;;;;;37.50;17.37;;;;;;;19.77;90.26;100815.16;5039897;28;20208;-64
2022/09/04 06:42:50;;;;;;;37.17;17.07;;;;;;;19.85;89.46;100818.53;5035692;28;20211;-64
2022/09/04 06:45:29;;;;;;;37.13;18.73;;;;;;;19.87;89.41;100819.16;5039481;28;20216;-65
2022/09/04 06:48:08;;;;;;;42.57;19.27;;;;;;;19.88;89.53;100823.47;5039987;28;20669;-64
2022/09/04 06:50:49;;;;;;;41.77;19.90;;;;;;;19.88;89.65;100820.78;5039378;28;20547;-64
2022/09/04 06:53:28;;;;;;;38.97;19.63;;;;;;;19.90;89.86;100832.19;5041983;28;20235;-64
2022/09/04 06:56:08;;;;;;;42.57;19.47;;;;;;;19.93;89.32;100825.59;5036168;28;20227;-65
2022/09/04 06:58:54;;;;;;;47.00;21.50;;;;;;;20.03;88.67;100841.38;5041124;28;20204;-65
2022/09/04 07:01:39;;;;;;;42.07;21.00;;;;;;;20.06;88.69;100835.56;5037678;28;20874;-65
2022/09/04 07:04:19;;;;;;;45.53;21.77;;;;;;;20.08;88.45;100852.34;5038181;28;20211;-65
2022/09/04 07:06:58;;;;;;;43.03;20.27;;;;;;;20.09;88.95;100845.94;5040988;28;20203;-65
2022/09/04 07:09:32;;;;;;;42.40;22.00;;;;;;;20.12;88.46;100845.56;5044093;28;20204;-65
2022/09/04 07:12:20;;;;;;;36.27;20.83;;;;;;;20.12;88.94;100840.16;5041834;28;20495;-65
2022/09/04 07:15:40;;;;;;;48.53;22.80;;;;;;;20.18;88.13;100839.34;5045430;28;20307;-65
2022/09/04 07:18:23;;;;;;;53.97;29.53;;;;;;;20.17;89.10;100848.44;5045770;28;20249;-65
2022/09/04 07:21:03;;;;;;;48.80;26.23;;;;;;;20.15;89.21;100858.59;5049258;28;20239;-64
2022/09/04 07:23:43;;;;;;;50.90;23.93;;;;;;;20.16;90.08;100857.56;5053345;28;20198;-65
2022/09/04 07:26:25;;;;;;;44.47;23.83;;;;;;;20.17;89.94;100862.75;5044374;28;20307;-65
2022/09/04 07:29:14;;;;;;;45.07;24.43;;;;;;;20.22;89.93;100856.78;5055666;28;20209;-65
2022/09/04 07:31:49;;;;;;;39.80;24.37;;;;;;;20.24;89.27;100854.69;5047671;28;20222;-65
2022/09/04 07:34:25;;;;;;;44.33;27.00;;;;;;;20.25;90.55;100859.03;5051333;28;20219;-64
2022/09/04 07:37:00;;;;;;;44.83;27.07;;;;;;;20.24;90.41;100860.06;5043921;28;20212;-64
2022/09/04 07:39:37;;;;;;;47.37;28.60;;;;;;;20.28;89.97;100867.56;5043907;28;20200;-65
2022/09/04 07:42:13;;;;;;;45.10;27.90;;;;;;;20.21;90.54;100879.34;5071727;28;20607;-64
2022/09/04 07:44:48;;;;;;;47.40;28.17;;;;;;;20.16;90.74;100873.72;5072456;28;20306;-65
2022/09/04 07:47:21;;;;;;;46.37;28.53;;;;;;;20.12;91.64;100877.84;5068662;28;20201;-65
2022/09/04 07:49:58;;;;;;;48.40;28.67;;;;;;;20.10;91.64;100875.34;5065327;28;20696;-65
2022/09/04 07:52:44;;;;;;;47.00;28.77;;;;;;;20.15;91.92;100888.19;5068330;28;20660;-65
2022/09/04 07:55:36;;;;;;;50.00;30.13;;;;;;;20.19;92.02;100889.47;5064177;28;20540;-64
2022/09/04 07:58:49;;;;;;;47.03;29.70;;;;;;;20.22;91.52;100889.91;5065267;28;20286;-65
2022/09/04 08:01:33;;;;;;;52.60;29.43;;;;;;;20.25;92.53;100899.44;5049951;28;20207;-65
2022/09/04 08:04:28;;;;;;;56.57;33.10;;;;;;;20.31;91.72;100895.97;5065476;28;20206;-64
2022/09/04 08:06:59;;;;;;;62.30;35.90;;;;;;;20.33;91.69;100893.03;5067118;28;20199;-65
2022/09/04 08:09:46;;;;;;;58.90;35.80;;;;;;;20.34;91.94;100892.00;5067721;28;20648;-65
2022/09/04 08:12:44;;;;;;;67.03;38.00;;;;;;;20.31;91.91;100898.66;5067392;28;20212;-65
2022/09/04 08:15:18;;;;;;;72.63;38.83;;;;;;;20.41;91.11;100911.75;5063861;28;21041;-65
2022/09/04 08:18:02;;;;;;;73.63;41.40;;;;;;;20.47;90.67;100919.03;5062384;28;20299;-65
2022/09/04 08:20:41;;;;;;;73.77;40.63;;;;;;;20.51;89.75;100910.34;5067469;28;20199;-65
2022/09/04 08:23:28;;;;;;;74.43;40.70;;;;;;;20.49;90.08;100917.78;5064319;28;20195;-65
2022/09/04 08:26:13;;;;;;;82.37;45.37;;;;;;;20.56;89.38;100918.66;5064619;28;20226;-66
2022/09/04 08:28:58;;;;;;;80.33;43.93;;;;;;;20.57;88.63;100924.88;5062288;28;20207;-65
2022/09/04 08:31:30;;;;;;;71.77;39.33;;;;;;;20.59;89.02;100925.50;5064791;28;20300;-62
2022/09/04 08:34:28;;;;;;;59.10;35.27;;;;;;;20.54;89.07;100930.66;5066004;28;20319;-62
2022/09/04 08:37:09;;;;;;;65.53;38.33;;;;;;;20.22;90.82;100938.38;5061356;28;20207;-62
2022/09/04 08:39:46;;;;;;;64.40;38.07;;;;;;;20.01;93.19;100937.63;5064092;28;20442;-62
2022/09/04 08:42:44;;;;;;;66.93;38.30;;;;;;;19.97;93.99;100937.19;5044940;28;20236;-62
2022/09/04 08:45:47;;;;;;;64.63;37.50;;;;;;;20.12;93.00;100943.31;5044076;28;20435;-62
2022/09/04 08:48:55;;;;;;;63.00;37.67;;;;;;;20.29;91.45;100949.19;5040454;28;20208;-62
2022/09/04 08:52:05;;;;;;;59.67;36.77;;;;;;;20.39;91.54;100952.38;5043031;28;20204;-62
2022/09/04 08:55:08;;;;;;;49.73;31.07;;;;;;;20.43;92.09;100963.56;5046838;28;20236;-61
2022/09/04 08:57:54;;;;;;;42.77;28.00;;;;;;;20.54;90.99;100958.44;5042479;28;20215;-63
2022/09/04 09:00:29;;;;;;;39.87;25.77;;;;;;;20.57;91.07;100968.00;5043132;28;20871;-62
2022/09/04 09:03:29;;;;;;;34.37;25.70;;;;;;;20.65;90.31;100965.13;5041560;28;20199;-65
2022/09/04 09:06:28;;;;;;;36.47;26.47;;;;;;;20.82;88.72;100960.19;5040511;28;20215;-65
2022/09/04 09:09:43;;;;;;;38.00;26.80;;;;;;;21.02;87.39;100956.50;5039808;28;20218;-65
2022/09/04 09:12:56;;;;;;;37.97;27.10;;;;;;;21.17;85.85;100956.38;5042984;28;20206;-67
2022/09/04 09:15:48;;;;;;;36.00;26.03;;;;;;;21.26;86.11;100947.03;5040989;28;20220;-66
2022/09/04 09:18:34;;;;;;;37.47;26.77;;;;;;;21.34;85.35;100951.41;5040816;28;20205;-67
2022/09/04 09:21:07;;;;;;;35.43;26.00;;;;;;;21.58;84.75;100955.34;5039633;28;20346;-68
2022/09/04 09:23:44;;;;;;;34.73;26.13;;;;;;;21.85;83.66;100961.53;5039343;28;20290;-67
2022/09/04 09:26:25;;;;;;;33.67;25.07;;;;;;;22.14;81.90;100955.69;5038553;28;20204;-66
2022/09/04 09:29:26;;;;;;;32.47;23.27;;;;;;;22.27;81.34;100949.41;5039218;28;20273;-67
2022/09/04 09:32:37;;;;;;;30.60;23.27;;;;;;;22.34;80.60;100959.16;5042490;28;20208;-66
2022/09/04 09:35:54;;;;;;;26.50;20.43;;;;;;;23.00;75.93;100956.16;5041507;28;20950;-68
2022/09/04 09:38:40;;;;;;;34.13;23.47;;;;;;;24.24;69.17;100948.03;5041794;28;20215;-66
2022/09/04 09:41:27;;;;;;;28.43;21.27;;;;;;;;;;5051681;28;20243;-67
2022/09/04 09:44:26;;;;;;;28.07;22.63;;;;;;;23.69;71.79;100943.56;5059791;28;20207;-67
2022/09/04 09:47:29;;;;;;;30.02;21.65;;;;;;;23.42;70.80;100938.38;5063647;28;20222;-66
2022/09/04 09:50:15;;;;;;;29.20;22.30;;;;;;;23.32;72.79;100943.44;5066746;28;20502;-67
2022/09/04 09:53:03;;;;;;;27.75;21.75;;;;;;;23.52;72.57;100938.72;5065627;28;20350;-66
2022/09/04 09:56:01;;;;;;;28.70;20.27;;;;;;;24.51;66.13;100926.03;5066534;28;20313;-67
2022/09/04 09:58:55;;;;;;;27.80;22.15;;;;;;;24.52;65.98;100933.09;5061935;28;20219;-65
2022/09/04 10:01:41;;;;;;;33.05;23.27;;;;;;;24.07;68.99;100925.28;5061850;28;20213;-65
2022/09/04 10:04:38;;;;;;;24.75;19.30;;;;;;;23.75;69.98;100921.03;5062434;28;20207;-66
2022/09/04 10:07:44;;;;;;;25.40;19.95;;;;;;;23.71;69.46;100926.06;5064185;28;20565;-68
2022/09/04 10:10:45;;;;;;;29.92;21.83;;;;;;;23.80;70.73;100934.72;5058777;28;20483;-66
2022/09/04 10:13:37;;;;;;;25.38;20.02;;;;;;;25.49;63.31;100923.72;5059695;28;20215;-66
2022/09/04 10:16:37;;;;;;;20.70;14.63;;;;;;;25.52;61.59;100917.81;5062678;28;20247;-67
2022/09/04 10:19:45;;;;;;;18.08;13.95;;;;;;;24.83;64.09;100919.31;5063420;28;20685;-66
2022/09/04 10:22:40;;;;;;;22.20;16.75;;;;;;;24.43;66.44;100915.50;5058670;28;20298;-66
2022/09/04 10:25:44;;;;;;;17.35;14.23;;;;;;;23.94;67.39;100914.56;5061189;28;20199;-66
2022/09/04 10:28:54;;;;;;;15.75;12.65;;;;;;;23.86;69.09;100904.03;5060342;28;20207;-66
2022/09/04 10:31:45;;;;;;;15.02;11.68;;;;;;;23.80;69.09;100910.34;5061662;28;20339;-65
2022/09/04 10:34:32;;;;;;;18.65;11.50;;;;;;;23.58;70.25;100913.47;5064204;28;20227;-66
2022/09/04 10:37:16;;;;;;;17.73;13.05;;;;;;;23.49;71.54;100920.22;5059719;28;20210;-65
2022/09/04 10:43:00;;;;;;;15.35;12.52;;;;;;;23.26;73.25;100922.69;5039669;28;20691;-65
2022/09/04 10:45:36;;;;;;;17.30;14.25;;;;;;;23.22;73.58;100918.75;5043590;28;20218;-65
2022/09/04 10:48:40;;;;;;;18.17;14.32;;;;;;;23.31;74.39;100913.94;5041406;28;20285;-65
2022/09/04 10:51:34;;;;;;;14.40;11.02;;;;;;;23.39;72.93;100908.22;5042343;28;20208;-66
2022/09/04 10:54:38;;;;;;;11.05;9.45;;;;;;;23.44;72.24;100906.50;5019149;28;20231;-68
2022/09/04 10:57:21;;;;;;;11.95;9.25;;;;;;;23.35;72.96;100910.53;5041583;28;20598;-67
2022/09/04 11:00:04;;;;;;;9.38;7.05;;;;;;;23.38;72.57;100911.97;5042307;28;20236;-68
2022/09/04 11:03:02;;;;;;;11.10;6.75;;;;;;;23.45;72.53;100910.88;5043184;28;20212;-66
2022/09/04 11:05:56;;;;;;;11.25;9.40;;;;;;;23.77;70.43;100913.50;5036601;28;20220;-65
2022/09/04 11:08:41;;;;;;;12.25;8.98;;;;;;;23.78;70.27;100899.75;5042405;28;20204;-65
2022/09/04 11:11:41;;;;;;;9.23;8.23;;;;;;;23.65;71.27;100910.72;5042379;28;20204;-65
2022/09/04 11:14:29;;;;;;;10.30;8.68;;;;;;;23.69;70.17;100908.38;5041298;28;20656;-63
2022/09/04 11:17:32;;;;;;;9.55;7.93;;;;;;;23.68;70.77;100906.72;5038138;28;20212;-64
2022/09/04 11:20:44;;;;;;;8.10;6.65;;;;;;;23.62;71.37;100900.34;5040994;28;20669;-64
2022/09/04 11:23:41;;;;;;;9.45;7.53;;;;;;;23.83;71.28;100899.09;5040536;28;20211;-66
2022/09/04 11:26:36;;;;;;;10.80;7.47;;;;;;;24.22;68.71;100890.53;5042336;28;20207;-66
2022/09/04 11:29:29;;;;;;;8.07;6.65;;;;;;;25.34;63.55;100890.78;5040689;28;20294;-65
2022/09/04 11:32:16;;;;;;;5.47;4.60;;;;;;;26.29;59.03;100896.75;5039304;28;20212;-65
2022/09/04 11:35:24;;;;;;;8.75;4.53;;;;;;;26.54;56.24;100889.09;5043771;28;20845;-67
2022/09/04 11:38:07;;;;;;;4.97;3.78;;;;;;;26.91;54.89;100894.16;5038596;28;20219;-66
2022/09/04 11:41:09;;;;;;;4.95;2.63;;;;;;;26.80;54.90;100889.56;5050160;28;20247;-66
2022/09/04 11:44:24;;;;;;;5.32;2.50;;;;;;;26.68;54.97;100883.34;5061786;28;20245;-65
2022/09/04 11:47:29;;;;;;;5.43;2.83;;;;;;;26.32;55.38;100885.38;5053336;28;20205;-65
2022/09/04 11:50:18;;;;;;;3.72;2.15;;;;;;;25.96;53.83;100882.97;5056979;28;20204;-65
2022/09/04 11:53:11;;;;;;;2.80;2.20;;;;;;;25.73;53.90;100871.09;5015424;28;20578;-66
2022/09/04 11:56:11;;;;;;;3.40;2.47;;;;;;;26.26;52.39;100883.66;5066280;28;20319;-65
2022/09/04 11:59:10;;;;;;;4.95;2.60;;;;;;;28.13;48.48;100882.38;5068276;28;20210;-65
2022/09/04 12:01:56;;;;;;;3.85;2.90;;;;;;;29.56;45.32;100878.06;5067187;28;20200;-65
2022/09/04 12:04:39;;;;;;;6.32;2.95;;;;;;;30.53;43.17;100879.34;5068281;28;20235;-66
2022/09/04 12:07:33;;;;;;;4.72;2.40;;;;;;;30.04;43.37;100867.94;5068161;28;20286;-65
2022/09/04 12:10:30;;;;;;;3.45;2.40;;;;;;;28.96;45.61;100872.94;5065502;28;20199;-65
2022/09/04 12:13:25;;;;;;;3.20;2.15;;;;;;;28.16;47.50;100868.22;5064533;28;20199;-66
2022/09/04 12:16:22;;;;;;;2.47;1.92;;;;;;;27.51;48.34;100871.69;5064411;28;20222;-66
2022/09/04 12:19:22;;;;;;;4.60;1.95;;;;;;;26.94;49.43;100882.75;5066745;28;20215;-66
2022/09/04 12:22:18;;;;;;;3.88;2.08;;;;;;;26.44;50.22;100877.19;5065961;28;20306;-65
2022/09/04 12:25:09;;;;;;;4.45;2.60;;;;;;;26.16;51.73;100886.13;5064063;28;20569;-65
2022/09/04 12:28:32;;;;;;;3.90;2.30;;;;;;;25.96;50.83;100885.69;5047850;28;20589;-65
2022/09/04 12:31:19;;;;;;;3.35;2.25;;;;;;;25.86;51.59;100876.25;5063640;28;20239;-65
2022/09/04 12:34:08;;;;;;;5.68;3.00;;;;;;;25.98;51.55;100872.69;5065780;28;20284;-65
2022/09/04 12:37:22;;;;;;;4.68;2.20;;;;;;;26.35;51.79;100876.75;5062589;28;20765;-65
2022/09/04 12:40:15;;;;;;;3.65;2.40;;;;;;;26.72;50.88;100873.66;5066668;28;20586;-65
2022/09/04 12:42:56;;;;;;;7.32;2.65;;;;;;;26.76;50.72;100870.19;5052065;28;20695;-65